Terminal Aerodrome Forecast
Issued by NWS

Home | Current Version | Previous Version | Text Only | Print | Product List | Glossary On
Versions: 1 2 3 4 5 6 7 8 9 10 11 12 13
173
FTUS41 KLWX 241120
TAFMTN
TAF
KMTN 241120Z 2412/2512 00000KT P6SM BKN120 BKN170
     FM242000 24008KT P6SM VCTS BKN060CB
     FM250000 26005KT P6SM SCT060 SCT250
     FM250300 32004KT P6SM SCT060 SCT250=

USA.gov is the U.S. government's official web portal to all federal, state and local government web resources and services.